Spearfish, SD (57799)

2:56 PM MDT on October 01, 2016 (GMT -0600)
TMWC | | Change Station

Elev 3685 ft 44.49 °N, 103.87 °W | Updated 0 second ago

Overcast
Overcast
78.3 °F
Feels Like 79 °F
N
9.2
Wind Variable Wind from SSE
Gusts 9.2 mph

Today
High -- | Low -- °F
--% Chance of Precip.
Yesterday
High -- | Low -- °F
Precip. -- in
Pressure 29.97 in
Visibility 10.0 miles
Clouds Clear
Heat Index 79 °F
Dew Point 48 °F
Humidity 35%
Rainfall 0.00 in
Snow Depth Not available.
6:53 AM 6:35 PM
New Moon, 1% visible
METAR KSPF 012035Z AUTO 09009G14KT 10SM -RA CLR 26/11 A2997 RMK AO2
Pressure 29.97 in
Visibility 10.0 miles
Clouds Clear
Heat Index 79 °F
Dew Point 48 °F
Humidity 35%
Rainfall 0.00 in
Snow Depth Not available.
6:53 AM 6:35 PM
New Moon, 1% visible
METAR KSPF 012035Z AUTO 09009G14KT 10SM -RA CLR 26/11 A2997 RMK AO2

10-Day Weather Forecast

Almanac

Astronomy

Oct. 01, 2016 Rise Set
Actual Time
Civil Twilight
Nautical Twilight
Astronomical Twilight
Moon
Length of Visible Light
Length of Day
Tomorrow will be .
, % of the Moon is Illuminated

Today's Extremes

State Highs State Lows

Community

WunderPhotos

Upload Photos

1,943,017 photos uploaded!

WunderBlog® & News

Nearby

Air Quality

  Air Quality AQ Index Pollutant
Not available.

Snow Depth

Station Depth Elevation

Earthquake Activity

City Distance Mag. Time & Date
Minimum magnitude displayed is 2.5.

Coastal Water Temperatures

Place Temperature

Stations

Nearby Weather Stations

Station Location Temp. Windchill Dew Point Humidity Wind Precip. Elev Updated Type
                   

Watches & Warnings

There are currently no watches in effect.